sensor_id;sensor_type;location;lat;lon;timestamp;P1;durP1;ratioP1;P2;durP2;ratioP2
40675;SDS011;26359;48.750;9.314;2023-04-25T00:02:18;18.55;;;17.30;;
40675;SDS011;26359;48.750;9.314;2023-04-25T00:04:44;8.20;;;7.55;;
40675;SDS011;26359;48.750;9.314;2023-04-25T00:07:09;7.90;;;7.30;;
40675;SDS011;26359;48.750;9.314;2023-04-25T00:09:35;8.27;;;7.55;;
40675;SDS011;26359;48.750;9.314;2023-04-25T00:12:01;11.85;;;11.10;;
40675;SDS011;26359;48.750;9.314;2023-04-25T00:14:26;22.90;;;21.25;;
40675;SDS011;26359;48.750;9.314;2023-04-25T00:16:52;14.88;;;13.75;;
40675;SDS011;26359;48.750;9.314;2023-04-25T00:19:19;24.25;;;22.85;;
40675;SDS011;26359;48.750;9.314;2023-04-25T00:21:44;21.80;;;20.48;;
40675;SDS011;26359;48.750;9.314;2023-04-25T00:24:11;18.30;;;17.00;;
40675;SDS011;26359;48.750;9.314;2023-04-25T00:26:37;11.95;;;11.15;;
40675;SDS011;26359;48.750;9.314;2023-04-25T00:29:02;9.90;;;9.20;;
40675;SDS011;26359;48.750;9.314;2023-04-25T00:31:28;16.65;;;15.65;;
40675;SDS011;26359;48.750;9.314;2023-04-25T00:33:54;22.52;;;21.13;;
40675;SDS011;26359;48.750;9.314;2023-04-25T00:36:19;9.23;;;8.63;;
40675;SDS011;26359;48.750;9.314;2023-04-25T00:38:45;10.15;;;9.43;;
40675;SDS011;26359;48.750;9.314;2023-04-25T00:41:10;8.63;;;7.90;;
40675;SDS011;26359;48.750;9.314;2023-04-25T00:43:37;6.93;;;6.25;;
40675;SDS011;26359;48.750;9.314;2023-04-25T00:46:02;8.52;;;7.90;;
40675;SDS011;26359;48.750;9.314;2023-04-25T00:48:28;13.65;;;12.65;;
40675;SDS011;26359;48.750;9.314;2023-04-25T00:50:55;21.20;;;20.00;;
40675;SDS011;26359;48.750;9.314;2023-04-25T00:53:23;30.75;;;29.10;;
40675;SDS011;26359;48.750;9.314;2023-04-25T00:55:49;21.40;;;20.17;;
40675;SDS011;26359;48.750;9.314;2023-04-25T00:58:19;16.33;;;15.00;;
40675;SDS011;26359;48.750;9.314;2023-04-25T01:00:46;28.23;;;26.63;;
40675;SDS011;26359;48.750;9.314;2023-04-25T01:03:13;24.17;;;22.60;;
40675;SDS011;26359;48.750;9.314;2023-04-25T01:05:41;23.75;;;22.45;;
40675;SDS011;26359;48.750;9.314;2023-04-25T01:08:07;21.67;;;20.35;;
40675;SDS011;26359;48.750;9.314;2023-04-25T01:10:33;21.00;;;19.80;;
40675;SDS011;26359;48.750;9.314;2023-04-25T01:12:58;8.32;;;7.63;;
40675;SDS011;26359;48.750;9.314;2023-04-25T01:15:24;7.82;;;7.25;;
40675;SDS011;26359;48.750;9.314;2023-04-25T01:17:50;7.07;;;6.47;;
40675;SDS011;26359;48.750;9.314;2023-04-25T01:20:15;6.35;;;5.40;;
40675;SDS011;26359;48.750;9.314;2023-04-25T01:22:42;7.50;;;6.80;;
40675;SDS011;26359;48.750;9.314;2023-04-25T01:25:08;7.00;;;6.50;;
40675;SDS011;26359;48.750;9.314;2023-04-25T01:27:35;8.18;;;7.20;;
40675;SDS011;26359;48.750;9.314;2023-04-25T01:30:01;6.35;;;5.63;;
40675;SDS011;26359;48.750;9.314;2023-04-25T01:32:28;9.27;;;8.10;;
40675;SDS011;26359;48.750;9.314;2023-04-25T01:34:56;7.50;;;6.80;;
40675;SDS011;26359;48.750;9.314;2023-04-25T01:37:22;17.42;;;16.25;;
40675;SDS011;26359;48.750;9.314;2023-04-25T01:39:47;7.60;;;6.45;;
40675;SDS011;26359;48.750;9.314;2023-04-25T01:42:15;9.82;;;9.13;;
40675;SDS011;26359;48.750;9.314;2023-04-25T01:44:40;13.77;;;12.75;;
40675;SDS011;26359;48.750;9.314;2023-04-25T01:47:06;9.90;;;9.13;;
40675;SDS011;26359;48.750;9.314;2023-04-25T01:49:31;16.23;;;15.00;;
40675;SDS011;26359;48.750;9.314;2023-04-25T01:51:57;8.90;;;8.27;;
40675;SDS011;26359;48.750;9.314;2023-04-25T01:54:22;8.45;;;7.78;;
40675;SDS011;26359;48.750;9.314;2023-04-25T01:56:51;6.03;;;5.53;;
40675;SDS011;26359;48.750;9.314;2023-04-25T01:59:17;8.43;;;5.80;;
40675;SDS011;26359;48.750;9.314;2023-04-25T02:01:44;6.93;;;6.38;;
40675;SDS011;26359;48.750;9.314;2023-04-25T02:04:10;7.68;;;6.97;;
40675;SDS011;26359;48.750;9.314;2023-04-25T02:06:35;9.30;;;8.68;;
40675;SDS011;26359;48.750;9.314;2023-04-25T02:09:01;13.38;;;12.48;;
40675;SDS011;26359;48.750;9.314;2023-04-25T02:11:26;11.63;;;10.82;;
40675;SDS011;26359;48.750;9.314;2023-04-25T02:13:52;12.57;;;11.75;;
40675;SDS011;26359;48.750;9.314;2023-04-25T02:16:17;12.38;;;11.57;;
40675;SDS011;26359;48.750;9.314;2023-04-25T02:18:43;7.80;;;7.05;;
40675;SDS011;26359;48.750;9.314;2023-04-25T02:21:10;7.32;;;6.72;;
40675;SDS011;26359;48.750;9.314;2023-04-25T02:23:36;21.73;;;20.45;;
40675;SDS011;26359;48.750;9.314;2023-04-25T02:26:02;16.42;;;15.43;;
40675;SDS011;26359;48.750;9.314;2023-04-25T02:28:27;10.95;;;10.20;;
40675;SDS011;26359;48.750;9.314;2023-04-25T02:30:53;8.95;;;8.23;;
40675;SDS011;26359;48.750;9.314;2023-04-25T02:33:19;11.60;;;10.65;;
40675;SDS011;26359;48.750;9.314;2023-04-25T02:35:45;6.80;;;6.30;;
40675;SDS011;26359;48.750;9.314;2023-04-25T02:38:11;5.88;;;5.38;;
40675;SDS011;26359;48.750;9.314;2023-04-25T02:40:37;11.05;;;10.38;;
40675;SDS011;26359;48.750;9.314;2023-04-25T02:43:02;8.85;;;8.25;;
40675;SDS011;26359;48.750;9.314;2023-04-25T02:45:28;9.35;;;8.55;;
40675;SDS011;26359;48.750;9.314;2023-04-25T02:47:53;8.52;;;7.63;;
40675;SDS011;26359;48.750;9.314;2023-04-25T02:50:19;5.00;;;4.70;;
40675;SDS011;26359;48.750;9.314;2023-04-25T02:52:44;8.60;;;7.68;;
40675;SDS011;26359;48.750;9.314;2023-04-25T02:55:10;8.77;;;8.18;;
40675;SDS011;26359;48.750;9.314;2023-04-25T02:57:37;10.68;;;9.80;;
40675;SDS011;26359;48.750;9.314;2023-04-25T03:00:02;9.63;;;8.95;;
40675;SDS011;26359;48.750;9.314;2023-04-25T03:02:30;10.65;;;9.95;;
40675;SDS011;26359;48.750;9.314;2023-04-25T03:04:55;5.80;;;5.40;;
40675;SDS011;26359;48.750;9.314;2023-04-25T03:07:21;12.13;;;11.35;;
40675;SDS011;26359;48.750;9.314;2023-04-25T03:09:46;6.40;;;5.90;;
40675;SDS011;26359;48.750;9.314;2023-04-25T03:12:12;6.20;;;5.68;;
40675;SDS011;26359;48.750;9.314;2023-04-25T03:14:37;6.55;;;5.93;;
40675;SDS011;26359;48.750;9.314;2023-04-25T03:17:03;6.75;;;6.15;;
40675;SDS011;26359;48.750;9.314;2023-04-25T03:19:28;7.40;;;6.90;;
40675;SDS011;26359;48.750;9.314;2023-04-25T03:21:54;7.45;;;6.95;;
40675;SDS011;26359;48.750;9.314;2023-04-25T03:24:19;8.82;;;8.15;;
40675;SDS011;26359;48.750;9.314;2023-04-25T03:26:45;10.07;;;9.27;;
40675;SDS011;26359;48.750;9.314;2023-04-25T03:29:11;6.90;;;6.40;;
40675;SDS011;26359;48.750;9.314;2023-04-25T03:31:36;7.13;;;6.63;;
40675;SDS011;26359;48.750;9.314;2023-04-25T03:34:02;13.57;;;12.68;;
40675;SDS011;26359;48.750;9.314;2023-04-25T03:36:27;6.93;;;6.43;;
40675;SDS011;26359;48.750;9.314;2023-04-25T03:38:53;8.02;;;7.43;;
40675;SDS011;26359;48.750;9.314;2023-04-25T03:41:18;7.43;;;6.57;;
40675;SDS011;26359;48.750;9.314;2023-04-25T03:43:45;6.40;;;5.90;;
40675;SDS011;26359;48.750;9.314;2023-04-25T03:46:10;8.10;;;7.22;;
40675;SDS011;26359;48.750;9.314;2023-04-25T03:48:35;9.02;;;8.43;;
40675;SDS011;26359;48.750;9.314;2023-04-25T03:51:01;7.38;;;6.78;;
40675;SDS011;26359;48.750;9.314;2023-04-25T03:53:27;7.15;;;6.05;;
40675;SDS011;26359;48.750;9.314;2023-04-25T03:55:53;10.65;;;9.95;;
40675;SDS011;26359;48.750;9.314;2023-04-25T03:58:18;10.88;;;10.07;;
40675;SDS011;26359;48.750;9.314;2023-04-25T04:00:44;14.77;;;13.93;;
40675;SDS011;26359;48.750;9.314;2023-04-25T04:03:10;17.30;;;16.23;;
40675;SDS011;26359;48.750;9.314;2023-04-25T04:05:35;9.10;;;8.43;;
40675;SDS011;26359;48.750;9.314;2023-04-25T04:08:02;11.10;;;10.20;;
40675;SDS011;26359;48.750;9.314;2023-04-25T04:10:27;5.95;;;5.13;;
40675;SDS011;26359;48.750;9.314;2023-04-25T04:12:53;5.07;;;4.68;;
40675;SDS011;26359;48.750;9.314;2023-04-25T04:15:18;9.75;;;8.95;;
40675;SDS011;26359;48.750;9.314;2023-04-25T04:17:44;9.77;;;9.18;;
40675;SDS011;26359;48.750;9.314;2023-04-25T04:20:10;11.13;;;10.43;;
40675;SDS011;26359;48.750;9.314;2023-04-25T04:22:36;11.60;;;10.75;;
40675;SDS011;26359;48.750;9.314;2023-04-25T04:25:01;10.73;;;9.82;;
40675;SDS011;26359;48.750;9.314;2023-04-25T04:27:27;8.57;;;7.93;;
40675;SDS011;26359;48.750;9.314;2023-04-25T04:29:54;7.45;;;6.75;;
40675;SDS011;26359;48.750;9.314;2023-04-25T04:32:19;7.25;;;6.65;;
40675;SDS011;26359;48.750;9.314;2023-04-25T04:34:45;7.60;;;6.90;;
40675;SDS011;26359;48.750;9.314;2023-04-25T04:37:12;7.38;;;6.60;;
40675;SDS011;26359;48.750;9.314;2023-04-25T04:39:38;7.35;;;6.75;;
40675;SDS011;26359;48.750;9.314;2023-04-25T04:42:03;7.25;;;6.57;;
40675;SDS011;26359;48.750;9.314;2023-04-25T04:44:30;8.00;;;7.40;;
40675;SDS011;26359;48.750;9.314;2023-04-25T04:46:57;7.32;;;6.40;;
40675;SDS011;26359;48.750;9.314;2023-04-25T04:49:23;7.43;;;6.82;;
40675;SDS011;26359;48.750;9.314;2023-04-25T04:51:49;7.95;;;7.18;;
40675;SDS011;26359;48.750;9.314;2023-04-25T04:54:14;7.45;;;6.10;;
40675;SDS011;26359;48.750;9.314;2023-04-25T04:56:40;6.93;;;6.22;;
40675;SDS011;26359;48.750;9.314;2023-04-25T04:59:06;10.60;;;6.78;;
40675;SDS011;26359;48.750;9.314;2023-04-25T05:01:32;6.43;;;5.82;;
40675;SDS011;26359;48.750;9.314;2023-04-25T05:04:00;7.88;;;7.07;;
40675;SDS011;26359;48.750;9.314;2023-04-25T05:06:26;7.20;;;6.60;;
40675;SDS011;26359;48.750;9.314;2023-04-25T05:08:53;7.13;;;6.63;;
40675;SDS011;26359;48.750;9.314;2023-04-25T05:11:19;11.20;;;9.15;;
40675;SDS011;26359;48.750;9.314;2023-04-25T05:13:45;10.68;;;9.85;;
40675;SDS011;26359;48.750;9.314;2023-04-25T05:16:11;11.18;;;10.30;;
40675;SDS011;26359;48.750;9.314;2023-04-25T05:18:38;12.75;;;11.75;;
40675;SDS011;26359;48.750;9.314;2023-04-25T05:21:04;8.00;;;7.40;;
40675;SDS011;26359;48.750;9.314;2023-04-25T05:23:30;8.35;;;6.20;;
40675;SDS011;26359;48.750;9.314;2023-04-25T05:25:57;10.20;;;9.40;;
40675;SDS011;26359;48.750;9.314;2023-04-25T05:28:23;8.35;;;7.78;;
40675;SDS011;26359;48.750;9.314;2023-04-25T05:30:48;12.73;;;11.90;;
40675;SDS011;26359;48.750;9.314;2023-04-25T05:33:14;11.60;;;10.75;;
40675;SDS011;26359;48.750;9.314;2023-04-25T05:35:40;8.93;;;8.23;;
40675;SDS011;26359;48.750;9.314;2023-04-25T05:38:06;11.48;;;10.07;;
40675;SDS011;26359;48.750;9.314;2023-04-25T05:40:31;9.00;;;6.35;;
40675;SDS011;26359;48.750;9.314;2023-04-25T05:42:57;5.00;;;4.50;;
40675;SDS011;26359;48.750;9.314;2023-04-25T05:45:22;7.60;;;6.18;;
40675;SDS011;26359;48.750;9.314;2023-04-25T05:47:48;7.38;;;6.68;;
40675;SDS011;26359;48.750;9.314;2023-04-25T05:50:13;8.82;;;7.97;;
40675;SDS011;26359;48.750;9.314;2023-04-25T05:52:39;7.25;;;6.50;;
40675;SDS011;26359;48.750;9.314;2023-04-25T05:55:05;11.68;;;10.13;;
40675;SDS011;26359;48.750;9.314;2023-04-25T05:57:31;7.00;;;6.47;;
40675;SDS011;26359;48.750;9.314;2023-04-25T05:59:56;8.80;;;8.00;;
40675;SDS011;26359;48.750;9.314;2023-04-25T06:02:22;8.48;;;7.88;;
40675;SDS011;26359;48.750;9.314;2023-04-25T06:04:49;11.68;;;10.88;;
40675;SDS011;26359;48.750;9.314;2023-04-25T06:07:15;7.95;;;7.35;;
40675;SDS011;26359;48.750;9.314;2023-04-25T06:09:41;7.07;;;6.47;;
40675;SDS011;26359;48.750;9.314;2023-04-25T06:12:06;5.93;;;5.43;;
40675;SDS011;26359;48.750;9.314;2023-04-25T06:14:32;8.10;;;7.40;;
40675;SDS011;26359;48.750;9.314;2023-04-25T06:16:58;9.20;;;8.48;;
40675;SDS011;26359;48.750;9.314;2023-04-25T06:19:24;12.77;;;11.88;;
40675;SDS011;26359;48.750;9.314;2023-04-25T06:21:50;8.73;;;8.13;;
40675;SDS011;26359;48.750;9.314;2023-04-25T06:24:15;12.73;;;11.88;;
40675;SDS011;26359;48.750;9.314;2023-04-25T06:26:41;7.90;;;6.85;;
40675;SDS011;26359;48.750;9.314;2023-04-25T06:29:06;10.27;;;9.68;;
40675;SDS011;26359;48.750;9.314;2023-04-25T06:31:32;8.55;;;7.95;;
40675;SDS011;26359;48.750;9.314;2023-04-25T06:33:58;14.65;;;13.75;;
40675;SDS011;26359;48.750;9.314;2023-04-25T06:36:24;8.90;;;8.18;;
40675;SDS011;26359;48.750;9.314;2023-04-25T06:38:52;7.55;;;7.05;;
40675;SDS011;26359;48.750;9.314;2023-04-25T06:41:18;7.05;;;6.45;;
40675;SDS011;26359;48.750;9.314;2023-04-25T06:43:44;5.97;;;5.57;;
40675;SDS011;26359;48.750;9.314;2023-04-25T06:46:10;5.88;;;5.28;;
40675;SDS011;26359;48.750;9.314;2023-04-25T06:48:36;5.80;;;5.30;;
40675;SDS011;26359;48.750;9.314;2023-04-25T06:51:01;5.35;;;4.95;;
40675;SDS011;26359;48.750;9.314;2023-04-25T06:53:27;5.55;;;5.15;;
40675;SDS011;26359;48.750;9.314;2023-04-25T06:55:53;5.75;;;5.18;;
40675;SDS011;26359;48.750;9.314;2023-04-25T06:58:19;8.00;;;7.40;;
40675;SDS011;26359;48.750;9.314;2023-04-25T07:00:45;9.48;;;8.77;;
40675;SDS011;26359;48.750;9.314;2023-04-25T07:03:10;9.95;;;9.02;;
40675;SDS011;26359;48.750;9.314;2023-04-25T07:05:36;9.40;;;8.50;;
40675;SDS011;26359;48.750;9.314;2023-04-25T07:08:02;8.52;;;7.93;;
40675;SDS011;26359;48.750;9.314;2023-04-25T07:10:28;9.25;;;8.75;;
40675;SDS011;26359;48.750;9.314;2023-04-25T07:12:53;10.40;;;9.57;;
40675;SDS011;26359;48.750;9.314;2023-04-25T07:15:19;9.95;;;9.25;;
40675;SDS011;26359;48.750;9.314;2023-04-25T07:17:44;7.97;;;4.93;;
40675;SDS011;26359;48.750;9.314;2023-04-25T07:20:10;5.43;;;4.93;;
40675;SDS011;26359;48.750;9.314;2023-04-25T07:22:36;6.97;;;6.45;;
40675;SDS011;26359;48.750;9.314;2023-04-25T07:25:01;6.63;;;5.82;;
40675;SDS011;26359;48.750;9.314;2023-04-25T07:27:27;6.60;;;6.03;;
40675;SDS011;26359;48.750;9.314;2023-04-25T07:29:53;13.38;;;12.55;;
40675;SDS011;26359;48.750;9.314;2023-04-25T07:32:18;8.65;;;7.95;;
40675;SDS011;26359;48.750;9.314;2023-04-25T07:34:44;13.60;;;12.70;;
40675;SDS011;26359;48.750;9.314;2023-04-25T07:37:10;18.55;;;17.25;;
40675;SDS011;26359;48.750;9.314;2023-04-25T07:39:35;9.15;;;8.48;;
40675;SDS011;26359;48.750;9.314;2023-04-25T07:42:02;7.88;;;7.13;;
40675;SDS011;26359;48.750;9.314;2023-04-25T07:44:28;7.78;;;7.18;;
40675;SDS011;26359;48.750;9.314;2023-04-25T07:46:55;9.15;;;8.35;;
40675;SDS011;26359;48.750;9.314;2023-04-25T07:49:21;13.25;;;12.38;;
40675;SDS011;26359;48.750;9.314;2023-04-25T07:51:46;7.60;;;6.20;;
40675;SDS011;26359;48.750;9.314;2023-04-25T07:54:13;10.73;;;9.93;;
40675;SDS011;26359;48.750;9.314;2023-04-25T07:56:40;9.30;;;8.60;;
40675;SDS011;26359;48.750;9.314;2023-04-25T07:59:05;9.00;;;8.23;;
40675;SDS011;26359;48.750;9.314;2023-04-25T08:01:31;6.95;;;6.35;;
40675;SDS011;26359;48.750;9.314;2023-04-25T08:03:57;6.53;;;5.78;;
40675;SDS011;26359;48.750;9.314;2023-04-25T08:06:22;7.85;;;5.60;;
40675;SDS011;26359;48.750;9.314;2023-04-25T08:08:48;6.85;;;5.63;;
40675;SDS011;26359;48.750;9.314;2023-04-25T08:11:13;6.95;;;6.25;;
40675;SDS011;26359;48.750;9.314;2023-04-25T08:13:39;6.85;;;6.15;;
40675;SDS011;26359;48.750;9.314;2023-04-25T08:16:04;6.47;;;5.85;;
40675;SDS011;26359;48.750;9.314;2023-04-25T08:18:30;6.97;;;6.45;;
40675;SDS011;26359;48.750;9.314;2023-04-25T08:20:55;7.63;;;7.03;;
40675;SDS011;26359;48.750;9.314;2023-04-25T08:23:21;8.07;;;6.18;;
40675;SDS011;26359;48.750;9.314;2023-04-25T08:25:47;10.10;;;8.95;;
40675;SDS011;26359;48.750;9.314;2023-04-25T08:28:12;13.95;;;12.95;;
40675;SDS011;26359;48.750;9.314;2023-04-25T08:30:38;9.45;;;8.65;;
40675;SDS011;26359;48.750;9.314;2023-04-25T08:33:03;13.70;;;12.63;;
40675;SDS011;26359;48.750;9.314;2023-04-25T08:35:29;12.00;;;11.00;;
40675;SDS011;26359;48.750;9.314;2023-04-25T08:37:54;8.32;;;7.53;;
40675;SDS011;26359;48.750;9.314;2023-04-25T08:40:20;8.30;;;7.45;;
40675;SDS011;26359;48.750;9.314;2023-04-25T08:42:53;8.23;;;7.35;;
40675;SDS011;26359;48.750;9.314;2023-04-25T08:45:20;8.90;;;8.10;;
40675;SDS011;26359;48.750;9.314;2023-04-25T08:47:45;9.48;;;7.90;;
40675;SDS011;26359;48.750;9.314;2023-04-25T08:50:13;9.40;;;8.38;;
40675;SDS011;26359;48.750;9.314;2023-04-25T08:52:48;8.88;;;8.07;;
40675;SDS011;26359;48.750;9.314;2023-04-25T08:55:17;9.63;;;7.93;;
40675;SDS011;26359;48.750;9.314;2023-04-25T08:57:43;11.15;;;10.05;;
40675;SDS011;26359;48.750;9.314;2023-04-25T09:00:10;9.48;;;8.52;;
40675;SDS011;26359;48.750;9.314;2023-04-25T09:02:37;9.55;;;8.25;;
40675;SDS011;26359;48.750;9.314;2023-04-25T09:05:05;10.05;;;9.10;;
40675;SDS011;26359;48.750;9.314;2023-04-25T09:07:32;19.33;;;17.85;;
40675;SDS011;26359;48.750;9.314;2023-04-25T09:09:58;11.77;;;10.77;;
40675;SDS011;26359;48.750;9.314;2023-04-25T09:12:28;15.60;;;14.27;;
40675;SDS011;26359;48.750;9.314;2023-04-25T09:15:07;14.98;;;13.57;;
40675;SDS011;26359;48.750;9.314;2023-04-25T09:17:34;13.95;;;12.75;;
40675;SDS011;26359;48.750;9.314;2023-04-25T09:20:14;10.52;;;9.63;;
40675;SDS011;26359;48.750;9.314;2023-04-25T09:22:40;14.68;;;13.48;;
40675;SDS011;26359;48.750;9.314;2023-04-25T09:25:09;13.07;;;11.88;;
40675;SDS011;26359;48.750;9.314;2023-04-25T09:27:37;14.13;;;13.02;;
40675;SDS011;26359;48.750;9.314;2023-04-25T09:30:15;15.00;;;13.55;;
40675;SDS011;26359;48.750;9.314;2023-04-25T09:32:42;10.55;;;9.60;;
40675;SDS011;26359;48.750;9.314;2023-04-25T09:35:08;12.63;;;11.60;;
40675;SDS011;26359;48.750;9.314;2023-04-25T09:37:34;14.60;;;13.50;;
40675;SDS011;26359;48.750;9.314;2023-04-25T09:40:00;12.50;;;11.40;;
40675;SDS011;26359;48.750;9.314;2023-04-25T09:42:31;10.30;;;9.30;;
40675;SDS011;26359;48.750;9.314;2023-04-25T09:44:57;11.07;;;9.95;;
40675;SDS011;26359;48.750;9.314;2023-04-25T09:47:24;10.27;;;9.20;;
40675;SDS011;26359;48.750;9.314;2023-04-25T09:49:51;9.90;;;8.43;;
40675;SDS011;26359;48.750;9.314;2023-04-25T09:52:21;18.80;;;17.50;;
40675;SDS011;26359;48.750;9.314;2023-04-25T09:54:48;14.80;;;13.50;;
40675;SDS011;26359;48.750;9.314;2023-04-25T09:57:16;12.80;;;11.80;;
40675;SDS011;26359;48.750;9.314;2023-04-25T09:59:51;11.35;;;10.10;;
40675;SDS011;26359;48.750;9.314;2023-04-25T10:02:18;10.02;;;9.05;;
40675;SDS011;26359;48.750;9.314;2023-04-25T10:04:55;12.43;;;11.35;;
40675;SDS011;26359;48.750;9.314;2023-04-25T10:07:24;16.02;;;14.65;;
40675;SDS011;26359;48.750;9.314;2023-04-25T10:10:02;13.60;;;12.27;;
40675;SDS011;26359;48.750;9.314;2023-04-25T10:12:29;9.75;;;8.85;;
40675;SDS011;26359;48.750;9.314;2023-04-25T10:14:58;12.50;;;11.40;;
40675;SDS011;26359;48.750;9.314;2023-04-25T10:17:25;11.40;;;10.35;;
40675;SDS011;26359;48.750;9.314;2023-04-25T10:19:52;10.25;;;9.55;;
40675;SDS011;26359;48.750;9.314;2023-04-25T10:22:29;10.40;;;9.80;;
40675;SDS011;26359;48.750;9.314;2023-04-25T10:25:03;12.73;;;12.00;;
40675;SDS011;26359;48.750;9.314;2023-04-25T10:27:29;11.48;;;10.57;;
40675;SDS011;26359;48.750;9.314;2023-04-25T10:30:07;10.02;;;9.30;;
40675;SDS011;26359;48.750;9.314;2023-04-25T10:32:36;10.45;;;9.80;;
40675;SDS011;26359;48.750;9.314;2023-04-25T10:35:15;9.75;;;9.15;;
40675;SDS011;26359;48.750;9.314;2023-04-25T10:40:30;9.00;;;8.30;;
40675;SDS011;26359;48.750;9.314;2023-04-25T10:42:57;10.50;;;9.75;;
40675;SDS011;26359;48.750;9.314;2023-04-25T10:46:02;9.90;;;9.30;;
40675;SDS011;26359;48.750;9.314;2023-04-25T10:48:37;11.68;;;10.90;;
40675;SDS011;26359;48.750;9.314;2023-04-25T10:51:12;10.40;;;9.35;;
40675;SDS011;26359;48.750;9.314;2023-04-25T10:53:44;8.40;;;7.80;;
40675;SDS011;26359;48.750;9.314;2023-04-25T10:56:11;13.70;;;12.73;;
40675;SDS011;26359;48.750;9.314;2023-04-25T10:58:42;10.98;;;10.10;;
40675;SDS011;26359;48.750;9.314;2023-04-25T11:01:09;6.15;;;5.60;;
40675;SDS011;26359;48.750;9.314;2023-04-25T11:03:40;7.35;;;6.95;;
40675;SDS011;26359;48.750;9.314;2023-04-25T11:06:08;6.95;;;6.55;;
40675;SDS011;26359;48.750;9.314;2023-04-25T11:08:53;6.72;;;6.22;;
40675;SDS011;26359;48.750;9.314;2023-04-25T11:11:19;8.07;;;7.57;;
40675;SDS011;26359;48.750;9.314;2023-04-25T11:13:48;8.20;;;7.60;;
40675;SDS011;26359;48.750;9.314;2023-04-25T11:16:15;5.88;;;5.30;;
40675;SDS011;26359;48.750;9.314;2023-04-25T11:18:41;7.07;;;6.38;;
40675;SDS011;26359;48.750;9.314;2023-04-25T11:21:10;6.68;;;5.63;;
40675;SDS011;26359;48.750;9.314;2023-04-25T11:23:36;6.47;;;5.97;;
40675;SDS011;26359;48.750;9.314;2023-04-25T11:26:02;6.60;;;6.00;;
40675;SDS011;26359;48.750;9.314;2023-04-25T11:28:32;7.72;;;7.18;;
40675;SDS011;26359;48.750;9.314;2023-04-25T11:30:57;5.00;;;4.65;;
40675;SDS011;26359;48.750;9.314;2023-04-25T11:33:23;4.35;;;3.95;;
40675;SDS011;26359;48.750;9.314;2023-04-25T11:35:50;6.13;;;5.63;;
40675;SDS011;26359;48.750;9.314;2023-04-25T11:38:18;4.72;;;4.43;;
40675;SDS011;26359;48.750;9.314;2023-04-25T11:40:43;4.57;;;4.28;;
40675;SDS011;26359;48.750;9.314;2023-04-25T11:43:14;4.78;;;4.47;;
40675;SDS011;26359;48.750;9.314;2023-04-25T11:45:39;11.82;;;11.13;;
40675;SDS011;26359;48.750;9.314;2023-04-25T11:48:05;6.90;;;6.40;;
40675;SDS011;26359;48.750;9.314;2023-04-25T11:50:30;7.78;;;7.38;;
40675;SDS011;26359;48.750;9.314;2023-04-25T11:52:56;4.65;;;4.40;;
40675;SDS011;26359;48.750;9.314;2023-04-25T11:55:22;6.95;;;6.55;;
40675;SDS011;26359;48.750;9.314;2023-04-25T11:57:48;6.78;;;6.22;;
40675;SDS011;26359;48.750;9.314;2023-04-25T12:00:15;5.78;;;5.47;;
40675;SDS011;26359;48.750;9.314;2023-04-25T12:02:43;5.35;;;5.00;;
40675;SDS011;26359;48.750;9.314;2023-04-25T12:05:10;5.82;;;5.45;;
40675;SDS011;26359;48.750;9.314;2023-04-25T12:07:37;5.85;;;5.35;;
40675;SDS011;26359;48.750;9.314;2023-04-25T12:10:04;6.85;;;6.30;;
40675;SDS011;26359;48.750;9.314;2023-04-25T12:12:35;5.75;;;5.32;;
40675;SDS011;26359;48.750;9.314;2023-04-25T12:15:11;6.43;;;6.03;;
40675;SDS011;26359;48.750;9.314;2023-04-25T12:17:39;7.43;;;6.82;;
40675;SDS011;26359;48.750;9.314;2023-04-25T12:20:05;8.73;;;7.97;;
40675;SDS011;26359;48.750;9.314;2023-04-25T12:22:35;7.63;;;6.90;;
40675;SDS011;26359;48.750;9.314;2023-04-25T12:25:02;6.65;;;6.15;;
40675;SDS011;26359;48.750;9.314;2023-04-25T12:27:30;6.40;;;5.90;;
40675;SDS011;26359;48.750;9.314;2023-04-25T12:29:56;7.15;;;6.57;;
40675;SDS011;26359;48.750;9.314;2023-04-25T12:32:22;7.13;;;6.63;;
40675;SDS011;26359;48.750;9.314;2023-04-25T12:34:48;6.60;;;6.10;;
40675;SDS011;26359;48.750;9.314;2023-04-25T12:37:14;6.10;;;5.60;;
40675;SDS011;26359;48.750;9.314;2023-04-25T12:39:40;7.40;;;6.60;;
40675;SDS011;26359;48.750;9.314;2023-04-25T12:42:06;7.22;;;6.63;;
40675;SDS011;26359;48.750;9.314;2023-04-25T12:44:33;8.73;;;7.93;;
40675;SDS011;26359;48.750;9.314;2023-04-25T12:46:58;7.22;;;6.63;;
40675;SDS011;26359;48.750;9.314;2023-04-25T12:49:24;7.55;;;6.85;;
40675;SDS011;26359;48.750;9.314;2023-04-25T12:51:50;7.45;;;6.75;;
40675;SDS011;26359;48.750;9.314;2023-04-25T12:54:16;8.07;;;7.35;;
40675;SDS011;26359;48.750;9.314;2023-04-25T12:56:42;7.60;;;6.88;;
40675;SDS011;26359;48.750;9.314;2023-04-25T12:59:08;7.75;;;7.05;;
40675;SDS011;26359;48.750;9.314;2023-04-25T13:01:34;9.45;;;8.65;;
40675;SDS011;26359;48.750;9.314;2023-04-25T13:03:59;10.98;;;10.07;;
40675;SDS011;26359;48.750;9.314;2023-04-25T13:06:25;11.55;;;7.63;;
40675;SDS011;26359;48.750;9.314;2023-04-25T13:08:51;9.55;;;8.68;;
40675;SDS011;26359;48.750;9.314;2023-04-25T13:11:16;9.57;;;8.68;;
40675;SDS011;26359;48.750;9.314;2023-04-25T13:13:42;8.65;;;7.78;;
40675;SDS011;26359;48.750;9.314;2023-04-25T13:16:08;10.27;;;9.02;;
40675;SDS011;26359;48.750;9.314;2023-04-25T13:18:34;8.90;;;8.00;;
40675;SDS011;26359;48.750;9.314;2023-04-25T13:21:00;11.10;;;9.20;;
40675;SDS011;26359;48.750;9.314;2023-04-25T13:23:26;9.63;;;8.70;;
40675;SDS011;26359;48.750;9.314;2023-04-25T13:25:52;10.50;;;9.50;;
40675;SDS011;26359;48.750;9.314;2023-04-25T13:28:18;9.23;;;8.32;;
40675;SDS011;26359;48.750;9.314;2023-04-25T13:30:44;10.07;;;9.18;;
40675;SDS011;26359;48.750;9.314;2023-04-25T13:33:10;10.25;;;9.35;;
40675;SDS011;26359;48.750;9.314;2023-04-25T13:35:36;11.98;;;9.85;;
40675;SDS011;26359;48.750;9.314;2023-04-25T13:38:03;10.10;;;9.15;;
40675;SDS011;26359;48.750;9.314;2023-04-25T13:40:29;13.02;;;11.68;;
40675;SDS011;26359;48.750;9.314;2023-04-25T13:42:55;11.95;;;10.75;;
40675;SDS011;26359;48.750;9.314;2023-04-25T13:45:21;15.35;;;13.88;;
40675;SDS011;26359;48.750;9.314;2023-04-25T13:47:47;10.90;;;9.27;;
40675;SDS011;26359;48.750;9.314;2023-04-25T13:50:12;9.70;;;8.73;;
40675;SDS011;26359;48.750;9.314;2023-04-25T13:52:38;9.93;;;8.93;;
40675;SDS011;26359;48.750;9.314;2023-04-25T13:55:05;11.50;;;10.45;;
40675;SDS011;26359;48.750;9.314;2023-04-25T13:57:32;10.73;;;9.73;;
40675;SDS011;26359;48.750;9.314;2023-04-25T13:59:58;11.43;;;9.77;;
40675;SDS011;26359;48.750;9.314;2023-04-25T14:02:24;12.48;;;11.18;;
40675;SDS011;26359;48.750;9.314;2023-04-25T14:04:50;11.63;;;10.63;;
40675;SDS011;26359;48.750;9.314;2023-04-25T14:07:19;11.57;;;10.23;;
40675;SDS011;26359;48.750;9.314;2023-04-25T14:09:45;12.35;;;9.02;;
40675;SDS011;26359;48.750;9.314;2023-04-25T14:12:11;13.68;;;12.40;;
40675;SDS011;26359;48.750;9.314;2023-04-25T14:14:36;13.23;;;10.20;;
40675;SDS011;26359;48.750;9.314;2023-04-25T14:17:03;10.63;;;9.52;;
40675;SDS011;26359;48.750;9.314;2023-04-25T14:19:28;11.32;;;10.32;;
40675;SDS011;26359;48.750;9.314;2023-04-25T14:21:54;16.17;;;14.50;;
40675;SDS011;26359;48.750;9.314;2023-04-25T14:24:20;16.75;;;15.18;;
40675;SDS011;26359;48.750;9.314;2023-04-25T14:26:46;14.10;;;11.90;;
40675;SDS011;26359;48.750;9.314;2023-04-25T14:29:11;14.23;;;12.90;;
40675;SDS011;26359;48.750;9.314;2023-04-25T14:31:37;16.20;;;14.80;;
40675;SDS011;26359;48.750;9.314;2023-04-25T14:34:04;20.98;;;19.25;;
40675;SDS011;26359;48.750;9.314;2023-04-25T14:36:30;18.55;;;16.83;;
40675;SDS011;26359;48.750;9.314;2023-04-25T14:38:57;17.23;;;15.52;;